GON weather

Groton New London Airport
Groton (New London), Connecticut, United States

Public forecast

Using degrees Fahrenheit for public forecast. Weather courtesy of forecast.io.

METAR (pilot weather report)

Retrieved 2019/05/23 02:56 UTC (11 minutes ago):

KGON 230256Z AUTO 14007KT 10SM CLR 13/07 A3027 RMK AO2 SLP251 T01280072 53012

TAF (pilot weather forecast)

Forecast is more than 12 hours old.

Retrieved 2019/05/22 00:36 UTC (1 day ago):

TAF KGON 222334Z 2300/2324 15008KT P6SM SCT200 FM230200 VRB04KT P6SM BKN120 FM231200 19010KT P6SM BKN040 BKN080 FM231800 19013G19KT P6SM BKN040 BKN080